Time;durP1;ratioP1;P1;durP2;ratioP2;P2;SDS_P1;SDS_P2;PMS_P1;PMS_P2;Temp;Humidity;BMP_temperature;BMP_pressure;BME280_temperature;BME280_humidity;BME280_pressure;Samples;Min_cycle;Max_cycle;Signal;HPM_P1;HPM_P2
2022/04/14 00:01:43;;;;;;;14.88;10.43;;;11.40;99.90;;;;;;4984595;28;20038;-83
2022/04/14 00:04:09;;;;;;;15.23;10.95;;;11.50;99.90;;;;;;5000623;28;20042;-83
2022/04/14 00:06:35;;;;;;;15.30;10.20;;;11.50;99.90;;;;;;5000416;28;20062;-83
2022/04/14 00:09:01;;;;;;;17.42;10.82;;;11.50;99.90;;;;;;4984953;28;20077;-83
2022/04/14 00:11:26;;;;;;;17.27;11.30;;;11.40;99.90;;;;;;4984669;28;20049;-83
2022/04/14 00:13:52;;;;;;;14.07;9.55;;;11.40;99.90;;;;;;5000900;28;20042;-83
2022/04/14 00:16:18;;;;;;;17.08;10.35;;;11.40;99.90;;;;;;4989113;28;20398;-83
2022/04/14 00:18:43;;;;;;;15.63;11.30;;;11.40;99.90;;;;;;4963261;28;20039;-83
2022/04/14 00:21:09;;;;;;;17.88;11.48;;;11.40;99.90;;;;;;4963837;28;20062;-83
2022/04/14 00:23:35;;;;;;;17.00;11.35;;;11.30;99.90;;;;;;4964612;28;20434;-83
2022/04/14 00:26:00;;;;;;;18.20;12.05;;;11.30;99.90;;;;;;4963922;28;20047;-82
2022/04/14 00:28:26;;;;;;;15.98;11.55;;;11.20;99.90;;;;;;4963963;28;20042;-83
2022/04/14 00:30:52;;;;;;;17.33;11.68;;;11.20;99.90;;;;;;4963905;28;20454;-83
2022/04/14 00:33:18;;;;;;;19.15;12.85;;;11.20;99.90;;;;;;4963549;28;20034;-83
2022/04/14 00:35:43;;;;;;;14.90;9.80;;;11.10;99.90;;;;;;4965110;28;20053;-83
2022/04/14 00:38:09;;;;;;;16.63;12.30;;;11.10;99.90;;;;;;4964367;28;20085;-83
2022/04/14 00:40:35;;;;;;;24.02;17.13;;;11.10;99.90;;;;;;4965108;28;20043;-83
2022/04/14 00:43:00;;;;;;;19.17;13.73;;;11.10;99.90;;;;;;4963265;28;20387;-83
2022/04/14 00:45:26;;;;;;;20.02;15.50;;;11.00;99.90;;;;;;4964008;28;20039;-83
2022/04/14 00:47:53;;;;;;;15.48;12.20;;;11.00;99.90;;;;;;4979133;28;20101;-83
2022/04/14 00:50:19;;;;;;;20.48;14.57;;;11.00;99.90;;;;;;4963360;28;20049;-83
2022/04/14 00:52:48;;;;;;;19.92;14.50;;;11.00;99.90;;;;;;4979942;28;20103;-83
2022/04/14 00:55:14;;;;;;;21.52;15.30;;;11.00;99.90;;;;;;4964625;28;20042;-83
2022/04/14 00:57:41;;;;;;;19.73;14.25;;;11.00;99.90;;;;;;4980127;28;20049;-83
2022/04/14 01:00:07;;;;;;;20.27;14.20;;;11.10;99.90;;;;;;4963324;28;20043;-83
2022/04/14 01:02:33;;;;;;;17.05;14.02;;;11.10;99.90;;;;;;4978882;28;20054;-83
2022/04/14 01:05:00;;;;;;;17.88;13.77;;;11.10;99.90;;;;;;4963378;28;20045;-83
2022/04/14 01:07:27;;;;;;;19.70;14.73;;;11.10;99.90;;;;;;4962618;28;20043;-83
2022/04/14 01:09:54;;;;;;;17.55;13.57;;;11.10;99.90;;;;;;4962291;28;20090;-83
2022/04/14 01:12:20;;;;;;;21.85;14.93;;;11.10;99.90;;;;;;4962701;28;20049;-83
2022/04/14 01:14:45;;;;;;;19.83;15.02;;;11.10;99.90;;;;;;4978721;28;20038;-83
2022/04/14 01:17:11;;;;;;;17.08;12.95;;;11.10;99.90;;;;;;4962962;28;20517;-83
2022/04/14 01:19:38;;;;;;;18.83;14.80;;;11.00;99.90;;;;;;4962066;28;20046;-83
2022/04/14 01:22:24;;;;;;;21.98;15.73;;;11.10;99.90;;;;;;4963155;28;20085;-83
2022/04/14 01:24:55;;;;;;;20.17;14.80;;;10.90;99.90;;;;;;4964394;28;20101;-83
2022/04/14 01:27:25;;;;;;;16.63;12.67;;;10.90;99.90;;;;;;4964075;28;20739;-82
2022/04/14 01:29:54;;;;;;;22.60;15.38;;;10.90;99.90;;;;;;4965102;28;20284;-82
2022/04/14 01:32:21;;;;;;;19.90;14.32;;;10.80;99.90;;;;;;4964364;28;20510;-82
2022/04/14 01:34:48;;;;;;;18.50;14.07;;;10.80;99.90;;;;;;4964277;28;20049;-82
2022/04/14 01:37:14;;;;;;;19.33;14.93;;;10.70;99.90;;;;;;4970920;28;20038;-82
2022/04/14 01:39:39;;;;;;;20.58;15.32;;;10.70;99.90;;;;;;4981236;28;20042;-83
2022/04/14 01:42:05;;;;;;;18.60;14.75;;;10.60;99.90;;;;;;4981296;28;20069;-83
2022/04/14 01:44:31;;;;;;;21.58;13.98;;;10.60;99.90;;;;;;4981725;28;20038;-83
2022/04/14 01:46:57;;;;;;;22.73;18.38;;;10.60;99.90;;;;;;4982153;28;20137;-83
2022/04/14 01:49:23;;;;;;;25.10;18.77;;;10.50;99.90;;;;;;4997258;28;20081;-83
2022/04/14 01:51:49;;;;;;;24.55;18.30;;;10.40;99.90;;;;;;4998195;28;20038;-83
2022/04/14 01:54:15;;;;;;;16.77;13.65;;;10.40;99.90;;;;;;4998257;28;20044;-83
2022/04/14 01:56:41;;;;;;;26.80;20.13;;;10.40;99.90;;;;;;4982718;28;20049;-83
2022/04/14 01:59:08;;;;;;;25.00;17.90;;;10.40;99.90;;;;;;4998810;28;20042;-83
2022/04/14 02:01:34;;;;;;;17.75;15.48;;;10.30;99.90;;;;;;4982720;28;20038;-83
2022/04/14 02:04:02;;;;;;;18.15;13.30;;;10.40;99.90;;;;;;4998654;28;20100;-83
2022/04/14 02:06:28;;;;;;;23.60;17.50;;;10.40;99.90;;;;;;4981947;28;20456;-83
2022/04/14 02:08:54;;;;;;;20.23;16.33;;;10.40;99.90;;;;;;4980989;28;20086;-83
2022/04/14 02:11:20;;;;;;;20.30;15.30;;;10.40;99.90;;;;;;4997423;28;20113;-83
2022/04/14 02:13:46;;;;;;;21.98;17.77;;;10.30;99.90;;;;;;4997272;28;20046;-83
2022/04/14 02:16:12;;;;;;;21.48;16.38;;;10.40;99.90;;;;;;4982285;28;20409;-83
2022/04/14 02:18:38;;;;;;;20.98;16.90;;;10.40;99.90;;;;;;4980148;28;20125;-83
2022/04/14 02:21:03;;;;;;;22.67;18.23;;;10.40;99.90;;;;;;4997883;28;20125;-83
2022/04/14 02:23:29;;;;;;;28.73;21.50;;;10.30;99.90;;;;;;4981287;28;20125;-82
2022/04/14 02:25:55;;;;;;;28.73;21.23;;;10.30;99.90;;;;;;4981595;28;20042;-82
2022/04/14 02:28:21;;;;;;;29.08;21.50;;;10.30;99.90;;;;;;4980986;28;20125;-82
2022/04/14 02:30:48;;;;;;;26.27;20.65;;;10.30;99.90;;;;;;4982122;28;20125;-82
2022/04/14 02:33:14;;;;;;;27.13;21.42;;;10.30;99.90;;;;;;4997059;28;20047;-82
2022/04/14 02:35:40;;;;;;;27.52;22.33;;;10.30;99.90;;;;;;4981673;28;20097;-82
2022/04/14 02:38:05;;;;;;;40.95;28.90;;;10.30;99.90;;;;;;4997635;28;20056;-83
2022/04/14 02:40:31;;;;;;;31.25;24.65;;;10.30;99.90;;;;;;4980494;28;20050;-83
2022/04/14 02:42:57;;;;;;;31.30;22.58;;;10.30;99.90;;;;;;4996856;28;20042;-83
2022/04/14 02:45:24;;;;;;;34.60;26.85;;;10.20;99.90;;;;;;4980978;28;20453;-83
2022/04/14 02:47:50;;;;;;;31.80;25.20;;;10.20;99.90;;;;;;4983334;28;20073;-83
2022/04/14 02:50:16;;;;;;;34.00;25.05;;;10.30;99.90;;;;;;4987136;28;20545;-83
2022/04/14 02:52:42;;;;;;;38.38;27.92;;;10.20;99.90;;;;;;4996405;28;20077;-83
2022/04/14 02:55:08;;;;;;;29.67;23.75;;;10.20;99.90;;;;;;4981276;28;20158;-83
2022/04/14 02:57:35;;;;;;;32.28;26.67;;;10.20;99.90;;;;;;4981082;28;20050;-83
2022/04/14 03:00:01;;;;;;;32.17;24.38;;;10.20;99.90;;;;;;4981028;28;20375;-83
2022/04/14 03:02:26;;;;;;;30.45;25.35;;;10.20;99.90;;;;;;4980097;28;20061;-83
2022/04/14 03:04:53;;;;;;;32.33;25.45;;;10.20;99.90;;;;;;4980560;28;20042;-83
2022/04/14 03:07:19;;;;;;;34.22;25.00;;;10.20;99.90;;;;;;4979636;28;20607;-83
2022/04/14 03:09:45;;;;;;;38.40;30.63;;;10.20;99.90;;;;;;4995703;28;20486;-83
2022/04/14 03:12:12;;;;;;;32.33;25.48;;;10.20;99.90;;;;;;4979677;28;20050;-83
2022/04/14 03:14:38;;;;;;;39.88;28.25;;;10.20;99.90;;;;;;4995474;28;20042;-83
2022/04/14 03:17:04;;;;;;;34.03;26.27;;;10.10;99.90;;;;;;4978189;28;20395;-83
2022/04/14 03:19:30;;;;;;;36.20;28.63;;;10.10;99.90;;;;;;4996635;28;20560;-83
2022/04/14 03:21:56;;;;;;;40.10;29.48;;;10.00;99.90;;;;;;4980859;28;20046;-83
2022/04/14 03:24:21;;;;;;;38.78;29.15;;;10.00;99.90;;;;;;4981078;28;20049;-83
2022/04/14 03:26:47;;;;;;;39.78;29.95;;;10.00;99.90;;;;;;4997512;28;20096;-83
2022/04/14 03:29:13;;;;;;;33.83;27.33;;;9.90;99.90;;;;;;4997077;28;20049;-82
2022/04/14 03:31:38;;;;;;;37.15;29.65;;;9.90;99.90;;;;;;4981482;28;20069;-82
2022/04/14 03:34:04;;;;;;;33.45;26.65;;;9.90;99.90;;;;;;4986210;28;20038;-83
2022/04/14 03:40:12;;;;;;;38.85;29.90;;;9.90;99.90;;;;;;5005368;28;20036;-83
2022/04/14 03:42:37;;;;;;;47.10;35.33;;;9.90;99.90;;;;;;5003325;28;20046;-83
2022/04/14 03:45:04;;;;;;;37.03;28.42;;;9.80;99.90;;;;;;5003650;28;20042;-83
2022/04/14 03:47:30;;;;;;;49.67;35.33;;;9.80;99.90;;;;;;4986557;28;20038;-83
2022/04/14 03:49:56;;;;;;;34.78;28.63;;;9.80;99.90;;;;;;4987606;28;20185;-83
2022/04/14 03:52:21;;;;;;;36.00;29.17;;;9.80;99.90;;;;;;5002946;28;20123;-83
2022/04/14 03:54:47;;;;;;;39.65;30.40;;;9.80;99.90;;;;;;4991901;28;20043;-83
2022/04/14 03:57:14;;;;;;;47.53;33.63;;;9.80;99.90;;;;;;4950690;28;20046;-83
2022/04/14 03:59:39;;;;;;;36.60;28.20;;;9.80;99.90;;;;;;4950715;28;20109;-83
2022/04/14 04:02:05;;;;;;;43.78;33.38;;;9.80;99.90;;;;;;4983155;28;20053;-83
2022/04/14 04:04:32;;;;;;;43.17;30.48;;;9.80;99.90;;;;;;4950844;28;20038;-83
2022/04/14 04:06:58;;;;;;;39.10;29.40;;;9.80;99.90;;;;;;4983673;28;20406;-83
2022/04/14 04:09:24;;;;;;;31.98;26.90;;;9.80;99.90;;;;;;4983565;28;20062;-83
2022/04/14 04:11:50;;;;;;;37.15;29.38;;;9.80;99.90;;;;;;4967892;28;20038;-83
2022/04/14 04:14:16;;;;;;;36.65;28.27;;;9.80;99.90;;;;;;4966819;28;20066;-83
2022/04/14 04:16:43;;;;;;;34.97;27.90;;;9.80;99.90;;;;;;4983521;28;20089;-83
2022/04/14 04:19:08;;;;;;;34.92;27.60;;;9.80;99.90;;;;;;4950753;28;20513;-83
2022/04/14 04:21:34;;;;;;;36.55;31.00;;;9.70;99.90;;;;;;4983853;28;20042;-83
2022/04/14 04:24:00;;;;;;;38.85;29.15;;;9.70;99.90;;;;;;5002382;28;20096;-83
2022/04/14 04:26:25;;;;;;;34.60;27.02;;;9.70;99.90;;;;;;4982682;28;20043;-83
2022/04/14 04:28:51;;;;;;;29.75;24.75;;;9.70;99.90;;;;;;4983294;28;20122;-83
2022/04/14 04:31:17;;;;;;;33.70;26.88;;;9.70;99.90;;;;;;4966457;28;20038;-83
2022/04/14 04:33:43;;;;;;;38.80;29.70;;;9.70;99.90;;;;;;4982185;28;20101;-83
2022/04/14 04:36:08;;;;;;;37.47;28.63;;;9.60;99.90;;;;;;4966438;28;20045;-83
2022/04/14 04:38:34;;;;;;;33.13;25.38;;;9.60;99.90;;;;;;4988243;28;20512;-83
2022/04/14 04:41:00;;;;;;;32.42;26.08;;;9.60;99.90;;;;;;5002394;28;20125;-83
2022/04/14 04:43:26;;;;;;;30.67;25.75;;;9.60;99.90;;;;;;5003113;28;20049;-83
2022/04/14 04:45:52;;;;;;;30.42;25.05;;;9.50;99.90;;;;;;4982489;28;20081;-83
2022/04/14 04:48:17;;;;;;;32.08;25.23;;;9.60;99.90;;;;;;4999303;28;20053;-83
2022/04/14 04:50:43;;;;;;;32.83;26.77;;;9.50;99.90;;;;;;4983566;28;20038;-83
2022/04/14 04:53:09;;;;;;;40.88;32.08;;;9.50;99.90;;;;;;4999715;28;20038;-83
2022/04/14 04:55:34;;;;;;;36.88;29.75;;;9.50;99.90;;;;;;4999875;28;20038;-83
2022/04/14 04:58:00;;;;;;;35.85;30.40;;;9.50;99.90;;;;;;4998998;28;20042;-83
2022/04/14 05:00:26;;;;;;;35.20;26.17;;;9.50;99.90;;;;;;4999810;28;20512;-83
2022/04/14 05:02:52;;;;;;;33.88;27.92;;;9.40;99.90;;;;;;4999209;28;20046;-83
2022/04/14 05:05:21;;;;;;;34.78;28.38;;;9.50;99.90;;;;;;4966368;28;20038;-83
2022/04/14 05:07:46;;;;;;;35.75;28.73;;;9.40;99.90;;;;;;4983585;28;20038;-83
2022/04/14 05:10:12;;;;;;;33.08;28.02;;;9.30;99.90;;;;;;4983592;28;20130;-83
2022/04/14 05:12:37;;;;;;;50.17;34.45;;;9.30;99.90;;;;;;4983592;28;20042;-83
2022/04/14 05:15:04;;;;;;;29.75;23.90;;;9.30;99.90;;;;;;4982126;28;20065;-83
2022/04/14 05:17:30;;;;;;;40.13;31.77;;;9.30;99.90;;;;;;4981373;28;20465;-83
2022/04/14 05:19:55;;;;;;;39.72;30.52;;;9.30;99.90;;;;;;4980861;28;20042;-83
2022/04/14 05:22:21;;;;;;;38.00;30.83;;;9.30;99.90;;;;;;4985681;28;20053;-83
2022/04/14 05:24:47;;;;;;;33.03;27.60;;;9.30;99.90;;;;;;4989292;28;20112;-83
2022/04/14 05:27:12;;;;;;;46.50;35.38;;;9.30;99.90;;;;;;5004635;28;20046;-83
2022/04/14 05:29:38;;;;;;;37.08;29.65;;;9.30;99.90;;;;;;5002974;28;20034;-83
2022/04/14 05:32:04;;;;;;;29.55;25.67;;;9.30;99.90;;;;;;4998290;28;20053;-83
2022/04/14 05:34:30;;;;;;;41.75;32.35;;;9.20;99.90;;;;;;4965984;28;20034;-83
2022/04/14 05:36:56;;;;;;;48.58;36.25;;;9.30;99.90;;;;;;4982766;28;20038;-83
2022/04/14 05:39:21;;;;;;;74.07;44.75;;;9.20;99.90;;;;;;4999225;28;20073;-83
2022/04/14 05:41:47;;;;;;;37.55;29.88;;;9.20;99.90;;;;;;5000194;28;20085;-83
2022/04/14 05:44:13;;;;;;;37.72;29.83;;;9.20;99.90;;;;;;5003836;28;20038;-83
2022/04/14 05:46:39;;;;;;;40.55;32.28;;;9.30;99.90;;;;;;4983122;28;20053;-83
2022/04/14 05:49:04;;;;;;;39.05;32.00;;;9.30;99.90;;;;;;4981776;28;20485;-83
2022/04/14 05:51:30;;;;;;;43.22;35.30;;;9.50;99.90;;;;;;4998345;28;20091;-83
2022/04/14 05:53:55;;;;;;;45.13;36.53;;;9.60;99.90;;;;;;4979589;28;20420;-85
2022/04/14 05:56:21;;;;;;;42.40;34.38;;;9.70;99.90;;;;;;4980884;28;20192;-84
2022/04/14 05:58:47;;;;;;;42.65;34.15;;;9.90;99.90;;;;;;4979079;28;20035;-84
2022/04/14 06:01:13;;;;;;;40.47;34.30;;;10.20;99.90;;;;;;4989184;28;20054;-82
2022/04/14 06:03:40;;;;;;;38.35;33.45;;;10.50;99.90;;;;;;4968206;28;20093;-82
2022/04/14 06:06:08;;;;;;;39.47;33.17;;;11.20;99.90;;;;;;5001154;28;20042;-82
2022/04/14 06:08:33;;;;;;;29.38;26.27;;;11.90;99.90;;;;;;5003519;28;20077;-82
2022/04/14 06:10:59;;;;;;;26.42;23.52;;;12.60;99.90;;;;;;4987068;28;20045;-82
2022/04/14 06:13:25;;;;;;;26.25;23.02;;;13.10;99.90;;;;;;5004910;28;20038;-82
2022/04/14 06:15:50;;;;;;;25.52;22.42;;;13.70;99.90;;;;;;4981592;28;20074;-83
2022/04/14 06:18:16;;;;;;;27.50;22.67;;;14.30;99.90;;;;;;4968256;28;20402;-83
2022/04/14 06:20:42;;;;;;;25.05;21.90;;;14.30;99.90;;;;;;4997565;28;20085;-83
2022/04/14 06:23:08;;;;;;;25.80;21.63;;;14.70;99.90;;;;;;5006323;28;20539;-83
2022/04/14 06:25:34;;;;;;;25.98;21.58;;;15.20;99.90;;;;;;4985813;28;20397;-83
2022/04/14 06:28:00;;;;;;;25.02;21.13;;;15.50;99.90;;;;;;4984106;28;20035;-83
2022/04/14 06:30:26;;;;;;;22.50;20.10;;;15.80;99.90;;;;;;4989329;28;20042;-83
2022/04/14 06:33:00;;;;;;;23.63;21.13;;;16.50;99.90;;;;;;4996908;28;20408;-83
2022/04/14 06:35:26;;;;;;;25.35;22.25;;;16.70;99.90;;;;;;4987715;28;20045;-84
2022/04/14 06:37:52;;;;;;;25.33;21.70;;;16.70;99.90;;;;;;4985992;28;20046;-83
2022/04/14 06:40:20;;;;;;;24.48;21.17;;;16.90;99.90;;;;;;4998194;28;20050;-83
2022/04/14 06:42:45;;;;;;;27.02;22.52;;;17.00;99.90;;;;;;4997176;28;20386;-83
2022/04/14 06:45:11;;;;;;;27.77;23.05;;;17.10;99.90;;;;;;4968362;28;20046;-83
2022/04/14 06:47:37;;;;;;;26.63;22.98;;;16.70;99.90;;;;;;4983596;28;20042;-83
2022/04/14 06:50:03;;;;;;;29.33;24.38;;;16.90;99.90;;;;;;4996870;28;20038;-83
2022/04/14 06:52:28;;;;;;;29.40;24.90;;;16.70;99.90;;;;;;5000987;28;20544;-83
2022/04/14 06:54:54;;;;;;;28.88;23.10;;;17.30;99.90;;;;;;4981543;28;20064;-83
2022/04/14 06:57:20;;;;;;;31.85;24.58;;;17.20;99.90;;;;;;4983161;28;20037;-83
2022/04/14 06:59:46;;;;;;;28.27;24.05;;;16.90;99.90;;;;;;4960462;28;20046;-83
2022/04/14 07:02:12;;;;;;;30.48;25.30;;;16.60;99.90;;;;;;4979575;28;20080;-83
2022/04/14 07:04:38;;;;;;;30.58;25.33;;;16.40;99.90;;;;;;4982888;28;20451;-83
2022/04/14 07:07:04;;;;;;;29.02;24.08;;;16.80;99.90;;;;;;5000336;28;20129;-83
2022/04/14 07:09:32;;;;;;;29.85;25.80;;;16.80;99.90;;;;;;4999825;28;20109;-83
2022/04/14 07:12:01;;;;;;;29.90;24.27;;;17.10;99.90;;;;;;5003120;28;20042;-83
2022/04/14 07:14:28;;;;;;;27.90;22.67;;;17.70;99.90;;;;;;5015255;28;20494;-83
2022/04/14 07:16:58;;;;;;;27.67;22.90;;;18.50;99.90;;;;;;4999383;28;20052;-83
2022/04/14 07:19:24;;;;;;;30.83;23.95;;;18.70;99.90;;;;;;4999902;28;20481;-83
2022/04/14 07:21:50;;;;;;;28.05;22.58;;;19.00;99.60;;;;;;4984251;28;20513;-83
2022/04/14 07:24:16;;;;;;;30.73;24.92;;;19.70;98.60;;;;;;5000411;28;20042;-83
2022/04/14 07:26:42;;;;;;;28.05;21.90;;;20.10;96.70;;;;;;5004945;28;20056;-83
2022/04/14 07:29:08;;;;;;;26.92;22.63;;;20.10;94.20;;;;;;4982839;28;20545;-83
2022/04/14 07:31:35;;;;;;;27.20;21.85;;;19.30;95.60;;;;;;5004622;28;20034;-83
2022/04/14 07:34:02;;;;;;;27.23;23.77;;;19.30;97.00;;;;;;4985207;28;20045;-82
2022/04/14 07:36:28;;;;;;;25.77;22.02;;;19.10;97.40;;;;;;4989147;28;20034;-82
2022/04/14 07:38:54;;;;;;;28.25;22.98;;;19.20;98.80;;;;;;5002496;28;20038;-82
2022/04/14 07:41:20;;;;;;;24.88;20.42;;;19.50;97.70;;;;;;5002080;28;20042;-82
2022/04/14 07:43:46;;;;;;;24.13;19.92;;;19.50;97.40;;;;;;4980760;28;20062;-83
2022/04/14 07:46:12;;;;;;;24.98;20.35;;;19.70;96.20;;;;;;4964764;28;20141;-83
2022/04/14 07:48:37;;;;;;;24.48;20.13;;;19.90;95.30;;;;;;4978045;28;20093;-83
2022/04/14 07:51:04;;;;;;;23.48;19.95;;;19.50;95.20;;;;;;4977721;28;20042;-83
2022/04/14 07:53:30;;;;;;;26.65;20.48;;;19.30;95.70;;;;;;4981900;28;20034;-83
2022/04/14 07:55:56;;;;;;;22.10;19.20;;;19.30;97.70;;;;;;4958866;28;20081;-83
2022/04/14 07:58:22;;;;;;;22.65;17.35;;;19.80;97.00;;;;;;4984477;28;20133;-82
2022/04/14 08:00:50;;;;;;;21.63;18.02;;;19.90;96.00;;;;;;4983746;28;20048;-82
2022/04/14 08:03:16;;;;;;;23.13;18.27;;;19.90;94.50;;;;;;4982696;28;20062;-82
2022/04/14 08:05:44;;;;;;;22.52;18.42;;;19.80;95.70;;;;;;5000687;28;20471;-83
2022/04/14 08:08:18;;;;;;;23.88;17.52;;;19.60;96.60;;;;;;4980710;28;20049;-83
2022/04/14 08:10:52;;;;;;;20.63;16.40;;;19.60;95.20;;;;;;4983642;28;20053;-82
2022/04/14 08:13:19;;;;;;;18.88;15.48;;;19.50;95.50;;;;;;4971514;28;20039;-82
2022/04/14 08:15:45;;;;;;;21.17;16.13;;;19.70;95.10;;;;;;5004274;28;20042;-82
2022/04/14 08:18:11;;;;;;;18.52;14.73;;;19.80;93.50;;;;;;5001334;28;20544;-82
2022/04/14 08:20:40;;;;;;;19.00;15.43;;;19.80;92.90;;;;;;4995466;28;20074;-82
2022/04/14 08:23:11;;;;;;;17.27;14.40;;;19.30;92.00;;;;;;4982544;28;20049;-82
2022/04/14 08:25:38;;;;;;;17.80;14.70;;;19.60;93.60;;;;;;4990599;28;20116;-82
2022/04/14 08:28:05;;;;;;;17.77;14.20;;;19.70;92.60;;;;;;4988336;28;20042;-82
2022/04/14 08:30:33;;;;;;;16.45;14.02;;;19.80;91.70;;;;;;4984019;28;20035;-82
2022/04/14 08:33:11;;;;;;;16.38;13.65;;;19.70;90.50;;;;;;4988650;28;20041;-82
2022/04/14 08:35:37;;;;;;;18.13;14.63;;;19.60;90.80;;;;;;4983608;28;20088;-84
2022/04/14 08:38:06;;;;;;;19.67;15.02;;;19.80;91.50;;;;;;4980991;28;20507;-83
2022/04/14 08:40:35;;;;;;;17.17;14.43;;;19.90;89.50;;;;;;4979787;28;20042;-82
2022/04/14 08:43:06;;;;;;;17.52;14.13;;;20.20;92.20;;;;;;4981932;28;20529;-82
2022/04/14 08:45:34;;;;;;;19.08;15.45;;;20.40;89.20;;;;;;4996795;28;20046;-82
2022/04/14 08:48:02;;;;;;;18.20;14.13;;;20.40;89.70;;;;;;5003032;28;20091;-82
2022/04/14 08:50:29;;;;;;;17.42;14.18;;;20.60;90.50;;;;;;4998216;28;20050;-82
2022/04/14 08:52:56;;;;;;;17.02;13.77;;;20.90;86.70;;;;;;5005042;28;20047;-82
2022/04/14 08:55:22;;;;;;;16.50;13.95;;;20.80;85.30;;;;;;4998807;28;20038;-83
2022/04/14 08:57:48;;;;;;;15.93;12.85;;;20.80;83.10;;;;;;4978476;28;20192;-83
2022/04/14 09:00:18;;;;;;;15.63;13.50;;;20.80;82.20;;;;;;4995193;28;20045;-83
2022/04/14 09:02:46;;;;;;;15.77;12.63;;;20.80;84.30;;;;;;4994516;28;20050;-83
2022/04/14 09:05:17;;;;;;;16.38;13.98;;;20.90;78.30;;;;;;4979330;28;20057;-83
2022/04/14 09:07:47;;;;;;;16.75;14.25;;;20.90;77.60;;;;;;4992556;28;20046;-83
2022/04/14 09:10:13;;;;;;;15.88;13.93;;;21.00;78.30;;;;;;4978757;28;20519;-83
2022/04/14 09:12:38;;;;;;;15.00;13.38;;;20.80;75.90;;;;;;4977539;28;20042;-83
2022/04/14 09:15:05;;;;;;;17.38;14.10;;;20.40;74.40;;;;;;4963331;28;20117;-83
2022/04/14 09:17:31;;;;;;;15.70;14.10;;;20.30;73.20;;;;;;4977930;28;20050;-83
2022/04/14 09:19:57;;;;;;;15.80;13.75;;;20.30;77.70;;;;;;4960730;28;20050;-83
2022/04/14 09:22:23;;;;;;;16.50;13.75;;;20.00;77.60;;;;;;4960311;28;20082;-83
2022/04/14 09:24:54;;;;;;;16.40;14.10;;;19.90;79.00;;;;;;4977561;28;20046;-83
2022/04/14 09:27:25;;;;;;;;;;;19.80;79.90;;;;;;4976817;28;20043;-83
2022/04/14 09:29:52;;;;;;;15.93;13.57;;;20.10;81.40;;;;;;4976947;28;19918;-83
2022/04/14 09:32:36;;;;;;;16.65;14.50;;;20.50;82.80;;;;;;4959899;28;20081;-82
2022/04/14 09:35:31;;;;;;;17.10;13.73;;;20.60;80.80;;;;;;4976889;28;20043;-82
2022/04/14 09:38:02;;;;;;;15.85;13.45;;;20.70;75.40;;;;;;4990937;28;20105;-82
2022/04/14 09:40:30;;;;;;;15.82;13.45;;;20.50;74.50;;;;;;4977101;28;20052;-82
2022/04/14 09:42:56;;;;;;;15.57;12.85;;;20.80;76.10;;;;;;4960142;28;20046;-83
2022/04/14 09:45:28;;;;;;;16.40;13.77;;;20.90;74.40;;;;;;4976835;28;20569;-83
2022/04/14 09:47:55;;;;;;;15.57;13.82;;;20.90;71.00;;;;;;4975851;28;20050;-83
2022/04/14 09:50:35;;;;;;;15.05;13.43;;;20.90;70.90;;;;;;4960592;28;20434;-83
2022/04/14 09:53:15;;;;;;;15.38;13.20;;;20.60;71.30;;;;;;4960392;28;20078;-83
2022/04/14 09:56:01;;;;;;;14.32;12.80;;;20.60;73.60;;;;;;4960326;28;20454;-83
2022/04/14 09:58:27;;;;;;;15.13;12.30;;;20.20;70.90;;;;;;4960179;28;20050;-83
2022/04/14 10:00:57;;;;;;;15.25;12.77;;;19.90;75.50;;;;;;4960349;28;20050;-83
2022/04/14 10:03:29;;;;;;;14.55;11.48;;;19.70;76.20;;;;;;4959020;28;20039;-83
2022/04/14 10:05:59;;;;;;;13.40;11.43;;;19.40;74.70;;;;;;4976804;28;20070;-83
2022/04/14 10:08:27;;;;;;;13.57;11.25;;;19.20;76.20;;;;;;4976121;28;20121;-83
2022/04/14 10:11:25;;;;;;;12.30;10.55;;;18.60;75.70;;;;;;4975859;28;20046;-83
2022/04/14 10:13:51;;;;;;;12.50;10.25;;;18.90;80.30;;;;;;4975990;28;20509;-83
2022/04/14 10:16:21;;;;;;;12.85;9.93;;;19.20;80.00;;;;;;4976054;28;20039;-83
2022/04/14 10:18:48;;;;;;;13.40;10.27;;;19.50;78.30;;;;;;4975136;28;20097;-83
2022/04/14 10:21:15;;;;;;;12.07;9.43;;;19.70;74.50;;;;;;4960077;28;20038;-83
2022/04/14 10:23:41;;;;;;;13.40;10.57;;;19.90;73.80;;;;;;4975476;28;20046;-83
2022/04/14 10:26:09;;;;;;;14.60;10.70;;;20.10;72.70;;;;;;4976068;28;20109;-83
2022/04/14 10:28:36;;;;;;;12.75;9.75;;;19.80;71.70;;;;;;4959211;28;20502;-83
2022/04/14 10:31:02;;;;;;;12.10;9.70;;;19.70;70.90;;;;;;4959826;28;20057;-83
2022/04/14 10:33:31;;;;;;;12.68;9.88;;;19.70;73.10;;;;;;4974662;28;20502;-82
2022/04/14 10:35:57;;;;;;;11.55;8.57;;;19.80;75.60;;;;;;4975669;28;20070;-82
2022/04/14 10:38:36;;;;;;;11.35;8.80;;;19.90;72.80;;;;;;4975345;28;20097;-82
2022/04/14 10:41:18;;;;;;;12.82;10.30;;;20.00;73.60;;;;;;4975986;28;20387;-82
2022/04/14 10:43:45;;;;;;;12.30;9.80;;;20.10;72.20;;;;;;4974015;28;20038;-82
2022/04/14 10:46:16;;;;;;;13.27;10.32;;;19.70;70.90;;;;;;4975736;28;20490;-82
2022/04/14 10:48:43;;;;;;;11.23;9.65;;;19.90;70.80;;;;;;4959719;28;20058;-82
2022/04/14 10:51:27;;;;;;;11.95;9.35;;;20.00;71.70;;;;;;4975746;28;20038;-82
2022/04/14 10:54:00;;;;;;;13.25;10.20;;;19.90;70.50;;;;;;4959944;28;20111;-82
2022/04/14 10:56:37;;;;;;;12.52;9.43;;;19.50;71.90;;;;;;4975775;28;20043;-82
2022/04/14 10:59:17;;;;;;;12.27;9.77;;;19.20;73.80;;;;;;4976501;28;20129;-81
2022/04/14 11:01:45;;;;;;;11.98;9.27;;;19.10;74.70;;;;;;4976858;28;20050;-82
2022/04/14 11:04:34;;;;;;;12.35;9.38;;;19.20;73.50;;;;;;4975585;28;20042;-82
2022/04/14 11:07:01;;;;;;;9.95;8.27;;;19.40;74.60;;;;;;4976150;28;20051;-82
2022/04/14 11:09:45;;;;;;;11.07;8.23;;;19.20;72.10;;;;;;4976655;28;20063;-82
2022/04/14 11:12:50;;;;;;;9.70;6.93;;;19.30;77.10;;;;;;4975955;28;20109;-82
2022/04/14 11:15:30;;;;;;;8.30;5.78;;;19.50;72.70;;;;;;4959642;28;20090;-82
2022/04/14 11:18:04;;;;;;;8.90;5.57;;;19.70;70.80;;;;;;4975783;28;20112;-81
2022/04/14 11:20:30;;;;;;;10.27;5.32;;;19.90;67.30;;;;;;4976890;28;20045;-81
2022/04/14 11:23:07;;;;;;;7.85;4.90;;;20.20;69.20;;;;;;4975690;28;20042;-81
2022/04/14 11:25:48;;;;;;;8.77;5.13;;;20.50;69.80;;;;;;4976703;28;20133;-81
2022/04/14 11:28:21;;;;;;;8.25;4.80;;;20.60;64.00;;;;;;4975898;28;20107;-81
2022/04/14 11:30:49;;;;;;;8.52;5.45;;;20.60;66.30;;;;;;4976478;28;20038;-81
2022/04/14 11:33:28;;;;;;;9.52;5.72;;;20.70;66.10;;;;;;4974928;28;20043;-81
2022/04/14 11:36:14;;;;;;;8.15;5.57;;;20.80;65.10;;;;;;4976265;28;20035;-81
2022/04/14 11:38:49;;;;;;;9.70;5.63;;;20.40;64.10;;;;;;4958541;28;20174;-81
2022/04/14 11:41:35;;;;;;;8.70;5.50;;;20.20;68.10;;;;;;4975676;28;20133;-81
2022/04/14 11:44:04;;;;;;;9.43;6.43;;;20.10;68.30;;;;;;4975174;28;20043;-81
2022/04/14 11:46:30;;;;;;;9.27;5.45;;;19.70;66.40;;;;;;4975248;28;20039;-82
2022/04/14 11:48:57;;;;;;;9.13;4.70;;;19.40;69.10;;;;;;4974882;28;20045;-82
2022/04/14 11:51:23;;;;;;;7.55;3.90;;;19.30;67.60;;;;;;4960282;28;20035;-82
2022/04/14 11:53:53;;;;;;;6.47;3.75;;;19.70;71.60;;;;;;4960516;28;20046;-82
2022/04/14 11:56:19;;;;;;;7.03;3.45;;;20.00;68.40;;;;;;4979759;28;20050;-82
2022/04/14 11:58:46;;;;;;;6.68;2.95;;;20.30;67.40;;;;;;4979649;28;20084;-82
2022/04/14 12:01:12;;;;;;;5.93;2.50;;;20.10;63.70;;;;;;4963226;28;20039;-82
2022/04/14 12:03:40;;;;;;;6.20;2.47;;;20.00;64.00;;;;;;4978813;28;20039;-82
2022/04/14 12:06:08;;;;;;;7.47;2.40;;;19.90;64.30;;;;;;4979443;28;20042;-82
2022/04/14 12:08:35;;;;;;;4.82;2.00;;;19.50;63.20;;;;;;4978720;28;20043;-82
2022/04/14 12:11:11;;;;;;;5.97;2.15;;;19.40;64.40;;;;;;4962218;28;20058;-82
2022/04/14 12:13:38;;;;;;;7.22;2.50;;;19.80;66.90;;;;;;4978702;28;20046;-82
2022/04/14 12:16:06;;;;;;;6.05;2.40;;;20.10;67.00;;;;;;4979406;28;20403;-82
2022/04/14 12:18:32;;;;;;;6.25;2.50;;;20.30;63.90;;;;;;4962534;28;20058;-82
2022/04/14 12:20:58;;;;;;;5.85;2.47;;;20.40;62.00;;;;;;4979678;28;20043;-82
2022/04/14 12:23:24;;;;;;;6.93;3.05;;;20.60;62.70;;;;;;4962823;28;20043;-82
2022/04/14 12:25:52;;;;;;;7.40;3.10;;;20.40;61.30;;;;;;4979353;28;20042;-82
2022/04/14 12:28:18;;;;;;;7.05;3.50;;;20.10;62.00;;;;;;4964912;28;20122;-82
2022/04/14 12:30:44;;;;;;;7.15;3.30;;;19.90;62.90;;;;;;4965773;28;20075;-82
2022/04/14 12:33:09;;;;;;;6.18;3.10;;;19.30;63.30;;;;;;4964406;28;20042;-82
2022/04/14 12:35:41;;;;;;;7.75;3.28;;;18.90;66.00;;;;;;4966501;28;20101;-82
2022/04/14 12:38:15;;;;;;;6.32;2.72;;;18.40;66.50;;;;;;4982244;28;20093;-82
2022/04/14 12:41:01;;;;;;;5.55;2.40;;;18.20;70.50;;;;;;4982171;28;20047;-82